sensor_id;sensor_type;location;lat;lon;timestamp;P1;durP1;ratioP1;P2;durP2;ratioP2
79361;SDS011;68830;47.566;19.012;2023-05-20T00:02:45;16.40;;;10.38;;
79361;SDS011;68830;47.566;19.012;2023-05-20T00:05:48;16.95;;;10.20;;
79361;SDS011;68830;47.566;19.012;2023-05-20T00:08:50;15.40;;;11.20;;
79361;SDS011;68830;47.566;19.012;2023-05-20T00:11:53;17.67;;;11.98;;
79361;SDS011;68830;47.566;19.012;2023-05-20T00:14:55;17.13;;;11.77;;
79361;SDS011;68830;47.566;19.012;2023-05-20T00:17:59;16.90;;;10.35;;
79361;SDS011;68830;47.566;19.012;2023-05-20T00:21:01;19.35;;;11.70;;
79361;SDS011;68830;47.566;19.012;2023-05-20T00:24:04;19.20;;;10.93;;
79361;SDS011;68830;47.566;19.012;2023-05-20T00:27:08;14.50;;;9.95;;
79361;SDS011;68830;47.566;19.012;2023-05-20T00:30:10;19.33;;;11.02;;
79361;SDS011;68830;47.566;19.012;2023-05-20T00:33:12;18.20;;;10.93;;
79361;SDS011;68830;47.566;19.012;2023-05-20T00:36:15;17.20;;;11.55;;
79361;SDS011;68830;47.566;19.012;2023-05-20T00:39:17;16.80;;;11.90;;
79361;SDS011;68830;47.566;19.012;2023-05-20T00:42:20;16.92;;;11.38;;
79361;SDS011;68830;47.566;19.012;2023-05-20T00:45:22;18.02;;;10.63;;
79361;SDS011;68830;47.566;19.012;2023-05-20T00:48:25;17.98;;;11.65;;
79361;SDS011;68830;47.566;19.012;2023-05-20T00:51:34;19.33;;;12.25;;
79361;SDS011;68830;47.566;19.012;2023-05-20T00:54:36;18.98;;;10.52;;
79361;SDS011;68830;47.566;19.012;2023-05-20T00:57:40;17.63;;;11.57;;
79361;SDS011;68830;47.566;19.012;2023-05-20T01:00:42;17.70;;;10.40;;
79361;SDS011;68830;47.566;19.012;2023-05-20T01:03:44;18.73;;;12.82;;
79361;SDS011;68830;47.566;19.012;2023-05-20T01:06:47;21.92;;;12.30;;
79361;SDS011;68830;47.566;19.012;2023-05-20T01:09:50;23.75;;;11.93;;
79361;SDS011;68830;47.566;19.012;2023-05-20T01:12:55;19.83;;;11.98;;
79361;SDS011;68830;47.566;19.012;2023-05-20T01:15:59;21.70;;;11.35;;
79361;SDS011;68830;47.566;19.012;2023-05-20T01:19:05;21.38;;;11.70;;
79361;SDS011;68830;47.566;19.012;2023-05-20T01:22:29;22.60;;;12.73;;
79361;SDS011;68830;47.566;19.012;2023-05-20T01:25:31;21.92;;;12.27;;
79361;SDS011;68830;47.566;19.012;2023-05-20T01:28:35;20.45;;;11.15;;
79361;SDS011;68830;47.566;19.012;2023-05-20T01:31:39;24.35;;;12.63;;
79361;SDS011;68830;47.566;19.012;2023-05-20T01:34:41;24.00;;;12.27;;
79361;SDS011;68830;47.566;19.012;2023-05-20T01:37:47;19.25;;;11.63;;
79361;SDS011;68830;47.566;19.012;2023-05-20T01:40:49;19.70;;;12.63;;
79361;SDS011;68830;47.566;19.012;2023-05-20T01:43:52;23.42;;;12.73;;
79361;SDS011;68830;47.566;19.012;2023-05-20T01:46:54;25.95;;;12.27;;
79361;SDS011;68830;47.566;19.012;2023-05-20T01:49:57;24.80;;;12.43;;
79361;SDS011;68830;47.566;19.012;2023-05-20T01:53:00;18.00;;;11.90;;
79361;SDS011;68830;47.566;19.012;2023-05-20T01:56:04;25.38;;;12.80;;
79361;SDS011;68830;47.566;19.012;2023-05-20T01:59:06;17.55;;;11.63;;
79361;SDS011;68830;47.566;19.012;2023-05-20T02:02:08;20.48;;;11.82;;
79361;SDS011;68830;47.566;19.012;2023-05-20T02:05:10;18.98;;;12.25;;
79361;SDS011;68830;47.566;19.012;2023-05-20T02:08:13;19.63;;;12.10;;
79361;SDS011;68830;47.566;19.012;2023-05-20T02:11:16;23.80;;;13.43;;
79361;SDS011;68830;47.566;19.012;2023-05-20T02:14:18;19.77;;;12.30;;
79361;SDS011;68830;47.566;19.012;2023-05-20T02:17:20;29.70;;;12.00;;
79361;SDS011;68830;47.566;19.012;2023-05-20T02:20:22;18.77;;;11.93;;
79361;SDS011;68830;47.566;19.012;2023-05-20T02:23:25;19.95;;;12.18;;
79361;SDS011;68830;47.566;19.012;2023-05-20T02:26:27;22.77;;;12.48;;
79361;SDS011;68830;47.566;19.012;2023-05-20T02:29:30;23.15;;;13.75;;
79361;SDS011;68830;47.566;19.012;2023-05-20T02:32:32;24.10;;;12.63;;
79361;SDS011;68830;47.566;19.012;2023-05-20T02:35:35;20.67;;;12.82;;
79361;SDS011;68830;47.566;19.012;2023-05-20T02:38:38;20.50;;;12.25;;
79361;SDS011;68830;47.566;19.012;2023-05-20T02:41:40;22.80;;;12.52;;
79361;SDS011;68830;47.566;19.012;2023-05-20T02:44:43;20.52;;;11.60;;
79361;SDS011;68830;47.566;19.012;2023-05-20T02:47:44;17.33;;;11.73;;
79361;SDS011;68830;47.566;19.012;2023-05-20T02:50:47;19.15;;;11.50;;
79361;SDS011;68830;47.566;19.012;2023-05-20T02:53:50;21.48;;;12.43;;
79361;SDS011;68830;47.566;19.012;2023-05-20T02:56:53;23.23;;;12.27;;
79361;SDS011;68830;47.566;19.012;2023-05-20T02:59:54;21.13;;;10.68;;
79361;SDS011;68830;47.566;19.012;2023-05-20T03:02:58;19.35;;;10.80;;
79361;SDS011;68830;47.566;19.012;2023-05-20T03:06:00;20.88;;;11.48;;
79361;SDS011;68830;47.566;19.012;2023-05-20T03:09:03;19.98;;;12.15;;
79361;SDS011;68830;47.566;19.012;2023-05-20T03:12:07;16.70;;;10.52;;
79361;SDS011;68830;47.566;19.012;2023-05-20T03:15:09;18.75;;;11.27;;
79361;SDS011;68830;47.566;19.012;2023-05-20T03:18:11;20.10;;;11.57;;
79361;SDS011;68830;47.566;19.012;2023-05-20T03:21:16;19.40;;;11.52;;
79361;SDS011;68830;47.566;19.012;2023-05-20T03:24:19;18.70;;;11.85;;
79361;SDS011;68830;47.566;19.012;2023-05-20T03:27:23;16.95;;;11.27;;
79361;SDS011;68830;47.566;19.012;2023-05-20T03:30:26;19.05;;;11.38;;
79361;SDS011;68830;47.566;19.012;2023-05-20T03:33:29;20.08;;;11.82;;
79361;SDS011;68830;47.566;19.012;2023-05-20T03:36:31;23.77;;;13.57;;
79361;SDS011;68830;47.566;19.012;2023-05-20T03:39:35;26.77;;;12.45;;
79361;SDS011;68830;47.566;19.012;2023-05-20T03:42:37;28.90;;;12.90;;
79361;SDS011;68830;47.566;19.012;2023-05-20T03:45:39;22.67;;;12.80;;
79361;SDS011;68830;47.566;19.012;2023-05-20T03:48:41;19.35;;;11.77;;
79361;SDS011;68830;47.566;19.012;2023-05-20T03:51:43;18.80;;;11.70;;
79361;SDS011;68830;47.566;19.012;2023-05-20T03:54:47;19.25;;;12.07;;
79361;SDS011;68830;47.566;19.012;2023-05-20T03:57:49;39.45;;;15.10;;
79361;SDS011;68830;47.566;19.012;2023-05-20T04:00:51;18.55;;;11.88;;
79361;SDS011;68830;47.566;19.012;2023-05-20T04:03:53;23.42;;;12.73;;
79361;SDS011;68830;47.566;19.012;2023-05-20T04:06:56;20.15;;;12.07;;
79361;SDS011;68830;47.566;19.012;2023-05-20T04:10:00;19.52;;;11.90;;
79361;SDS011;68830;47.566;19.012;2023-05-20T04:13:02;18.70;;;12.10;;
79361;SDS011;68830;47.566;19.012;2023-05-20T04:16:04;20.92;;;13.18;;
79361;SDS011;68830;47.566;19.012;2023-05-20T04:19:06;21.83;;;11.48;;
79361;SDS011;68830;47.566;19.012;2023-05-20T04:22:09;19.42;;;12.82;;
79361;SDS011;68830;47.566;19.012;2023-05-20T04:25:13;21.20;;;11.93;;
79361;SDS011;68830;47.566;19.012;2023-05-20T04:28:15;22.00;;;12.00;;
79361;SDS011;68830;47.566;19.012;2023-05-20T04:31:17;17.73;;;11.60;;
79361;SDS011;68830;47.566;19.012;2023-05-20T04:34:19;16.98;;;10.15;;
79361;SDS011;68830;47.566;19.012;2023-05-20T04:37:27;16.42;;;11.35;;
79361;SDS011;68830;47.566;19.012;2023-05-20T04:40:31;16.08;;;10.57;;
79361;SDS011;68830;47.566;19.012;2023-05-20T04:43:33;17.58;;;10.60;;
79361;SDS011;68830;47.566;19.012;2023-05-20T04:46:35;23.45;;;11.02;;
79361;SDS011;68830;47.566;19.012;2023-05-20T04:49:38;19.77;;;10.93;;
79361;SDS011;68830;47.566;19.012;2023-05-20T04:52:40;18.30;;;9.57;;
79361;SDS011;68830;47.566;19.012;2023-05-20T04:55:54;16.77;;;10.65;;
79361;SDS011;68830;47.566;19.012;2023-05-20T04:58:57;18.35;;;10.73;;
79361;SDS011;68830;47.566;19.012;2023-05-20T05:01:59;16.55;;;10.70;;
79361;SDS011;68830;47.566;19.012;2023-05-20T05:05:01;16.00;;;10.38;;
79361;SDS011;68830;47.566;19.012;2023-05-20T05:08:04;19.77;;;11.55;;
79361;SDS011;68830;47.566;19.012;2023-05-20T05:11:08;16.58;;;9.98;;
79361;SDS011;68830;47.566;19.012;2023-05-20T05:14:10;18.10;;;10.07;;
79361;SDS011;68830;47.566;19.012;2023-05-20T05:17:12;21.33;;;9.80;;
79361;SDS011;68830;47.566;19.012;2023-05-20T05:20:14;19.25;;;10.80;;
79361;SDS011;68830;47.566;19.012;2023-05-20T05:23:17;16.65;;;10.15;;
79361;SDS011;68830;47.566;19.012;2023-05-20T05:26:20;18.00;;;10.57;;
79361;SDS011;68830;47.566;19.012;2023-05-20T05:29:23;16.23;;;9.65;;
79361;SDS011;68830;47.566;19.012;2023-05-20T05:32:25;15.95;;;10.73;;
79361;SDS011;68830;47.566;19.012;2023-05-20T05:35:27;19.80;;;10.18;;
79361;SDS011;68830;47.566;19.012;2023-05-20T05:38:29;18.70;;;11.63;;
79361;SDS011;68830;47.566;19.012;2023-05-20T05:41:33;15.82;;;10.85;;
79361;SDS011;68830;47.566;19.012;2023-05-20T05:44:35;18.73;;;9.82;;
79361;SDS011;68830;47.566;19.012;2023-05-20T05:47:37;17.58;;;9.73;;
79361;SDS011;68830;47.566;19.012;2023-05-20T05:50:42;17.95;;;10.63;;
79361;SDS011;68830;47.566;19.012;2023-05-20T05:53:45;16.70;;;10.27;;
79361;SDS011;68830;47.566;19.012;2023-05-20T05:56:49;20.73;;;11.85;;
79361;SDS011;68830;47.566;19.012;2023-05-20T05:59:51;19.00;;;10.15;;
79361;SDS011;68830;47.566;19.012;2023-05-20T06:02:54;16.25;;;10.88;;
79361;SDS011;68830;47.566;19.012;2023-05-20T06:05:56;17.65;;;11.45;;
79361;SDS011;68830;47.566;19.012;2023-05-20T06:08:58;17.85;;;11.23;;
79361;SDS011;68830;47.566;19.012;2023-05-20T06:12:03;19.35;;;11.50;;
79361;SDS011;68830;47.566;19.012;2023-05-20T06:15:06;21.65;;;12.10;;
79361;SDS011;68830;47.566;19.012;2023-05-20T06:18:08;19.75;;;11.00;;
79361;SDS011;68830;47.566;19.012;2023-05-20T06:21:11;19.13;;;11.43;;
79361;SDS011;68830;47.566;19.012;2023-05-20T06:24:13;19.17;;;11.45;;
79361;SDS011;68830;47.566;19.012;2023-05-20T06:27:16;18.48;;;11.27;;
79361;SDS011;68830;47.566;19.012;2023-05-20T06:30:18;20.73;;;12.40;;
79361;SDS011;68830;47.566;19.012;2023-05-20T06:33:21;18.13;;;10.82;;
79361;SDS011;68830;47.566;19.012;2023-05-20T06:39:29;20.52;;;10.73;;
79361;SDS011;68830;47.566;19.012;2023-05-20T06:42:32;19.20;;;11.75;;
79361;SDS011;68830;47.566;19.012;2023-05-20T06:45:34;15.55;;;10.40;;
79361;SDS011;68830;47.566;19.012;2023-05-20T06:48:36;16.52;;;11.20;;
79361;SDS011;68830;47.566;19.012;2023-05-20T06:51:38;19.27;;;10.57;;
79361;SDS011;68830;47.566;19.012;2023-05-20T06:54:40;17.58;;;10.45;;
79361;SDS011;68830;47.566;19.012;2023-05-20T06:57:43;18.92;;;11.38;;
79361;SDS011;68830;47.566;19.012;2023-05-20T07:00:45;18.35;;;11.65;;
79361;SDS011;68830;47.566;19.012;2023-05-20T07:03:47;22.90;;;12.73;;
79361;SDS011;68830;47.566;19.012;2023-05-20T07:06:50;16.33;;;11.32;;
79361;SDS011;68830;47.566;19.012;2023-05-20T07:09:53;19.40;;;10.63;;
79361;SDS011;68830;47.566;19.012;2023-05-20T07:12:56;22.67;;;13.52;;
79361;SDS011;68830;47.566;19.012;2023-05-20T07:15:59;21.42;;;11.43;;
79361;SDS011;68830;47.566;19.012;2023-05-20T07:19:01;20.88;;;11.52;;
79361;SDS011;68830;47.566;19.012;2023-05-20T07:22:03;16.60;;;10.00;;
79361;SDS011;68830;47.566;19.012;2023-05-20T07:25:06;19.33;;;10.80;;
79361;SDS011;68830;47.566;19.012;2023-05-20T07:28:10;21.27;;;10.75;;
79361;SDS011;68830;47.566;19.012;2023-05-20T07:31:15;20.25;;;11.02;;
79361;SDS011;68830;47.566;19.012;2023-05-20T07:34:18;18.33;;;11.38;;
79361;SDS011;68830;47.566;19.012;2023-05-20T07:37:20;17.92;;;12.00;;
79361;SDS011;68830;47.566;19.012;2023-05-20T07:40:22;17.35;;;11.73;;
79361;SDS011;68830;47.566;19.012;2023-05-20T07:43:25;19.75;;;12.88;;
79361;SDS011;68830;47.566;19.012;2023-05-20T07:46:27;21.20;;;11.68;;
79361;SDS011;68830;47.566;19.012;2023-05-20T07:49:30;23.13;;;13.45;;
79361;SDS011;68830;47.566;19.012;2023-05-20T07:52:32;18.85;;;11.20;;
79361;SDS011;68830;47.566;19.012;2023-05-20T07:55:48;22.25;;;12.10;;
79361;SDS011;68830;47.566;19.012;2023-05-20T07:58:55;24.20;;;13.13;;
79361;SDS011;68830;47.566;19.012;2023-05-20T08:02:03;21.52;;;13.90;;
79361;SDS011;68830;47.566;19.012;2023-05-20T08:05:06;19.50;;;13.52;;
79361;SDS011;68830;47.566;19.012;2023-05-20T08:08:09;25.42;;;15.65;;
79361;SDS011;68830;47.566;19.012;2023-05-20T08:11:11;21.45;;;13.70;;
79361;SDS011;68830;47.566;19.012;2023-05-20T08:14:15;28.38;;;15.15;;
79361;SDS011;68830;47.566;19.012;2023-05-20T08:17:18;23.85;;;14.35;;
79361;SDS011;68830;47.566;19.012;2023-05-20T08:20:20;26.20;;;13.98;;
79361;SDS011;68830;47.566;19.012;2023-05-20T08:23:22;23.85;;;15.20;;
79361;SDS011;68830;47.566;19.012;2023-05-20T08:26:24;20.50;;;14.32;;
79361;SDS011;68830;47.566;19.012;2023-05-20T08:29:28;23.80;;;15.10;;
79361;SDS011;68830;47.566;19.012;2023-05-20T08:32:30;23.88;;;13.50;;
79361;SDS011;68830;47.566;19.012;2023-05-20T08:35:34;23.20;;;13.50;;
79361;SDS011;68830;47.566;19.012;2023-05-20T08:38:36;18.77;;;12.00;;
79361;SDS011;68830;47.566;19.012;2023-05-20T08:41:39;26.05;;;14.23;;
79361;SDS011;68830;47.566;19.012;2023-05-20T08:44:43;20.35;;;13.77;;
79361;SDS011;68830;47.566;19.012;2023-05-20T08:47:46;28.83;;;14.30;;
79361;SDS011;68830;47.566;19.012;2023-05-20T08:50:49;22.65;;;13.23;;
79361;SDS011;68830;47.566;19.012;2023-05-20T08:53:51;22.77;;;12.30;;
79361;SDS011;68830;47.566;19.012;2023-05-20T08:56:55;34.53;;;14.90;;
79361;SDS011;68830;47.566;19.012;2023-05-20T08:59:58;20.85;;;11.98;;
79361;SDS011;68830;47.566;19.012;2023-05-20T09:03:00;20.50;;;14.02;;
79361;SDS011;68830;47.566;19.012;2023-05-20T09:06:03;26.55;;;12.75;;
79361;SDS011;68830;47.566;19.012;2023-05-20T09:09:06;23.00;;;14.50;;
79361;SDS011;68830;47.566;19.012;2023-05-20T09:12:09;29.63;;;16.33;;
79361;SDS011;68830;47.566;19.012;2023-05-20T09:15:13;32.30;;;15.27;;
79361;SDS011;68830;47.566;19.012;2023-05-20T09:18:14;27.85;;;14.43;;
79361;SDS011;68830;47.566;19.012;2023-05-20T09:21:16;19.77;;;12.05;;
79361;SDS011;68830;47.566;19.012;2023-05-20T09:24:19;20.50;;;12.80;;
79361;SDS011;68830;47.566;19.012;2023-05-20T09:27:24;17.35;;;12.23;;
79361;SDS011;68830;47.566;19.012;2023-05-20T09:30:27;22.33;;;13.55;;
79361;SDS011;68830;47.566;19.012;2023-05-20T09:33:29;22.15;;;13.65;;
79361;SDS011;68830;47.566;19.012;2023-05-20T09:36:33;22.63;;;12.95;;
79361;SDS011;68830;47.566;19.012;2023-05-20T09:39:38;23.25;;;13.45;;
79361;SDS011;68830;47.566;19.012;2023-05-20T09:42:46;19.33;;;13.25;;
79361;SDS011;68830;47.566;19.012;2023-05-20T09:45:54;21.15;;;11.60;;
79361;SDS011;68830;47.566;19.012;2023-05-20T09:48:58;26.67;;;14.75;;
79361;SDS011;68830;47.566;19.012;2023-05-20T09:52:00;26.33;;;13.48;;
79361;SDS011;68830;47.566;19.012;2023-05-20T09:55:04;23.58;;;13.68;;
79361;SDS011;68830;47.566;19.012;2023-05-20T09:58:06;23.10;;;13.63;;
79361;SDS011;68830;47.566;19.012;2023-05-20T10:01:18;23.27;;;14.48;;
79361;SDS011;68830;47.566;19.012;2023-05-20T10:04:21;19.13;;;13.55;;
79361;SDS011;68830;47.566;19.012;2023-05-20T10:07:30;19.55;;;13.32;;
79361;SDS011;68830;47.566;19.012;2023-05-20T10:10:51;23.98;;;13.27;;
79361;SDS011;68830;47.566;19.012;2023-05-20T10:14:05;22.65;;;11.88;;
79361;SDS011;68830;47.566;19.012;2023-05-20T10:17:23;27.33;;;13.18;;
79361;SDS011;68830;47.566;19.012;2023-05-20T10:20:29;22.33;;;12.73;;
79361;SDS011;68830;47.566;19.012;2023-05-20T10:23:32;18.85;;;12.48;;
79361;SDS011;68830;47.566;19.012;2023-05-20T10:26:35;24.20;;;11.90;;
79361;SDS011;68830;47.566;19.012;2023-05-20T10:29:41;19.33;;;12.38;;
79361;SDS011;68830;47.566;19.012;2023-05-20T10:32:51;26.77;;;12.90;;
79361;SDS011;68830;47.566;19.012;2023-05-20T10:35:57;22.85;;;13.60;;
79361;SDS011;68830;47.566;19.012;2023-05-20T10:38:59;20.45;;;12.82;;
79361;SDS011;68830;47.566;19.012;2023-05-20T10:42:04;19.70;;;12.00;;
79361;SDS011;68830;47.566;19.012;2023-05-20T10:45:07;18.08;;;11.93;;
79361;SDS011;68830;47.566;19.012;2023-05-20T10:48:18;21.90;;;12.77;;
79361;SDS011;68830;47.566;19.012;2023-05-20T10:51:21;21.77;;;11.85;;
79361;SDS011;68830;47.566;19.012;2023-05-20T10:54:23;20.95;;;12.75;;
79361;SDS011;68830;47.566;19.012;2023-05-20T10:57:25;23.33;;;12.90;;
79361;SDS011;68830;47.566;19.012;2023-05-20T11:00:28;18.52;;;12.07;;
79361;SDS011;68830;47.566;19.012;2023-05-20T11:03:32;26.13;;;13.30;;
79361;SDS011;68830;47.566;19.012;2023-05-20T11:06:35;18.83;;;11.95;;
79361;SDS011;68830;47.566;19.012;2023-05-20T11:09:37;20.98;;;11.38;;
79361;SDS011;68830;47.566;19.012;2023-05-20T11:12:39;19.27;;;11.85;;
79361;SDS011;68830;47.566;19.012;2023-05-20T11:15:42;23.55;;;12.10;;
79361;SDS011;68830;47.566;19.012;2023-05-20T11:18:45;21.98;;;13.90;;
79361;SDS011;68830;47.566;19.012;2023-05-20T11:21:49;24.27;;;12.38;;
79361;SDS011;68830;47.566;19.012;2023-05-20T11:24:51;23.23;;;14.38;;
79361;SDS011;68830;47.566;19.012;2023-05-20T11:27:53;23.88;;;13.65;;
79361;SDS011;68830;47.566;19.012;2023-05-20T11:30:55;19.33;;;11.57;;
79361;SDS011;68830;47.566;19.012;2023-05-20T11:33:59;26.33;;;15.55;;
79361;SDS011;68830;47.566;19.012;2023-05-20T11:37:05;22.92;;;13.02;;
79361;SDS011;68830;47.566;19.012;2023-05-20T11:40:09;21.88;;;13.60;;
79361;SDS011;68830;47.566;19.012;2023-05-20T11:43:13;19.58;;;12.02;;
79361;SDS011;68830;47.566;19.012;2023-05-20T11:46:17;24.17;;;14.05;;
79361;SDS011;68830;47.566;19.012;2023-05-20T11:49:22;22.27;;;12.82;;
79361;SDS011;68830;47.566;19.012;2023-05-20T11:52:27;21.27;;;13.48;;
79361;SDS011;68830;47.566;19.012;2023-05-20T11:55:30;26.38;;;14.40;;
79361;SDS011;68830;47.566;19.012;2023-05-20T11:58:33;23.52;;;13.68;;
79361;SDS011;68830;47.566;19.012;2023-05-20T12:01:36;22.42;;;12.55;;
79361;SDS011;68830;47.566;19.012;2023-05-20T12:04:45;21.98;;;13.82;;
79361;SDS011;68830;47.566;19.012;2023-05-20T12:07:47;22.80;;;14.00;;
79361;SDS011;68830;47.566;19.012;2023-05-20T12:10:50;21.65;;;13.80;;
79361;SDS011;68830;47.566;19.012;2023-05-20T12:13:52;24.85;;;12.88;;
79361;SDS011;68830;47.566;19.012;2023-05-20T12:16:54;25.90;;;14.07;;
79361;SDS011;68830;47.566;19.012;2023-05-20T12:19:58;27.63;;;13.63;;
79361;SDS011;68830;47.566;19.012;2023-05-20T12:23:00;25.42;;;14.60;;
79361;SDS011;68830;47.566;19.012;2023-05-20T12:26:02;24.63;;;13.52;;
79361;SDS011;68830;47.566;19.012;2023-05-20T12:29:05;25.67;;;14.05;;
79361;SDS011;68830;47.566;19.012;2023-05-20T12:32:08;20.17;;;13.52;;
79361;SDS011;68830;47.566;19.012;2023-05-20T12:35:12;23.20;;;13.48;;
79361;SDS011;68830;47.566;19.012;2023-05-20T12:38:14;23.35;;;11.18;;
79361;SDS011;68830;47.566;19.012;2023-05-20T12:41:16;24.85;;;13.30;;
79361;SDS011;68830;47.566;19.012;2023-05-20T12:44:18;20.70;;;12.85;;
79361;SDS011;68830;47.566;19.012;2023-05-20T12:47:20;23.23;;;13.82;;
79361;SDS011;68830;47.566;19.012;2023-05-20T12:50:24;21.20;;;13.55;;
79361;SDS011;68830;47.566;19.012;2023-05-20T12:53:26;30.08;;;14.63;;
79361;SDS011;68830;47.566;19.012;2023-05-20T12:56:28;27.85;;;14.50;;
79361;SDS011;68830;47.566;19.012;2023-05-20T12:59:30;23.75;;;12.57;;
79361;SDS011;68830;47.566;19.012;2023-05-20T13:02:33;23.05;;;13.75;;
79361;SDS011;68830;47.566;19.012;2023-05-20T13:05:39;25.63;;;14.25;;
79361;SDS011;68830;47.566;19.012;2023-05-20T13:08:41;22.50;;;13.23;;
79361;SDS011;68830;47.566;19.012;2023-05-20T13:11:43;20.80;;;12.48;;
79361;SDS011;68830;47.566;19.012;2023-05-20T13:14:45;27.17;;;14.57;;
79361;SDS011;68830;47.566;19.012;2023-05-20T13:17:47;25.33;;;14.02;;
79361;SDS011;68830;47.566;19.012;2023-05-20T13:20:50;22.70;;;13.55;;
79361;SDS011;68830;47.566;19.012;2023-05-20T13:23:53;28.25;;;14.40;;
79361;SDS011;68830;47.566;19.012;2023-05-20T13:26:55;24.23;;;14.63;;
79361;SDS011;68830;47.566;19.012;2023-05-20T13:29:57;24.90;;;13.23;;
79361;SDS011;68830;47.566;19.012;2023-05-20T13:32:59;18.58;;;12.23;;
79361;SDS011;68830;47.566;19.012;2023-05-20T13:36:03;26.50;;;14.38;;
79361;SDS011;68830;47.566;19.012;2023-05-20T13:39:05;25.00;;;14.57;;
79361;SDS011;68830;47.566;19.012;2023-05-20T13:42:07;23.90;;;13.50;;
79361;SDS011;68830;47.566;19.012;2023-05-20T13:45:09;23.70;;;15.52;;
79361;SDS011;68830;47.566;19.012;2023-05-20T13:48:12;28.55;;;14.63;;
79361;SDS011;68830;47.566;19.012;2023-05-20T13:51:15;25.40;;;15.18;;
79361;SDS011;68830;47.566;19.012;2023-05-20T13:54:19;25.58;;;14.82;;
79361;SDS011;68830;47.566;19.012;2023-05-20T13:57:21;26.63;;;14.85;;
79361;SDS011;68830;47.566;19.012;2023-05-20T14:00:24;24.58;;;13.45;;
79361;SDS011;68830;47.566;19.012;2023-05-20T14:03:26;31.70;;;14.95;;
79361;SDS011;68830;47.566;19.012;2023-05-20T14:06:29;32.03;;;14.00;;
79361;SDS011;68830;47.566;19.012;2023-05-20T14:09:32;24.50;;;15.82;;
79361;SDS011;68830;47.566;19.012;2023-05-20T14:12:34;27.92;;;17.02;;
79361;SDS011;68830;47.566;19.012;2023-05-20T14:15:36;27.05;;;14.23;;
79361;SDS011;68830;47.566;19.012;2023-05-20T14:18:38;26.08;;;14.57;;
79361;SDS011;68830;47.566;19.012;2023-05-20T14:21:41;23.30;;;12.95;;
79361;SDS011;68830;47.566;19.012;2023-05-20T14:24:43;26.50;;;15.30;;
79361;SDS011;68830;47.566;19.012;2023-05-20T14:27:46;25.83;;;16.15;;
79361;SDS011;68830;47.566;19.012;2023-05-20T14:30:48;29.23;;;16.35;;
79361;SDS011;68830;47.566;19.012;2023-05-20T14:33:51;25.77;;;15.18;;
79361;SDS011;68830;47.566;19.012;2023-05-20T14:36:54;27.30;;;15.00;;
79361;SDS011;68830;47.566;19.012;2023-05-20T14:39:57;29.42;;;15.93;;
79361;SDS011;68830;47.566;19.012;2023-05-20T14:42:59;29.63;;;15.38;;
79361;SDS011;68830;47.566;19.012;2023-05-20T14:46:01;25.65;;;14.68;;
79361;SDS011;68830;47.566;19.012;2023-05-20T14:49:03;22.25;;;14.35;;
79361;SDS011;68830;47.566;19.012;2023-05-20T14:52:07;24.95;;;15.05;;
79361;SDS011;68830;47.566;19.012;2023-05-20T14:55:09;26.67;;;15.48;;
79361;SDS011;68830;47.566;19.012;2023-05-20T14:58:11;25.45;;;15.48;;
79361;SDS011;68830;47.566;19.012;2023-05-20T15:01:13;27.35;;;14.55;;
79361;SDS011;68830;47.566;19.012;2023-05-20T15:04:15;28.92;;;16.00;;
79361;SDS011;68830;47.566;19.012;2023-05-20T15:07:18;31.45;;;16.00;;
79361;SDS011;68830;47.566;19.012;2023-05-20T15:10:21;30.45;;;16.98;;
79361;SDS011;68830;47.566;19.012;2023-05-20T15:13:23;29.75;;;16.25;;
79361;SDS011;68830;47.566;19.012;2023-05-20T15:16:26;28.48;;;16.75;;
79361;SDS011;68830;47.566;19.012;2023-05-20T15:19:30;24.17;;;14.88;;
79361;SDS011;68830;47.566;19.012;2023-05-20T15:22:34;37.85;;;18.20;;
79361;SDS011;68830;47.566;19.012;2023-05-20T15:25:36;27.98;;;15.68;;
79361;SDS011;68830;47.566;19.012;2023-05-20T15:28:38;33.95;;;17.77;;
79361;SDS011;68830;47.566;19.012;2023-05-20T15:31:40;30.70;;;16.50;;
79361;SDS011;68830;47.566;19.012;2023-05-20T15:34:42;25.17;;;16.15;;
79361;SDS011;68830;47.566;19.012;2023-05-20T15:37:46;30.27;;;16.83;;
79361;SDS011;68830;47.566;19.012;2023-05-20T15:40:48;30.02;;;15.60;;
79361;SDS011;68830;47.566;19.012;2023-05-20T15:43:51;27.60;;;17.33;;
79361;SDS011;68830;47.566;19.012;2023-05-20T15:46:53;33.22;;;19.13;;
79361;SDS011;68830;47.566;19.012;2023-05-20T15:49:55;32.97;;;17.05;;
79361;SDS011;68830;47.566;19.012;2023-05-20T15:52:59;30.75;;;17.08;;
79361;SDS011;68830;47.566;19.012;2023-05-20T15:56:01;30.95;;;17.27;;
79361;SDS011;68830;47.566;19.012;2023-05-20T15:59:04;34.33;;;18.33;;
79361;SDS011;68830;47.566;19.012;2023-05-20T16:02:06;32.10;;;18.83;;
79361;SDS011;68830;47.566;19.012;2023-05-20T16:05:09;32.05;;;17.45;;
79361;SDS011;68830;47.566;19.012;2023-05-20T16:08:12;27.75;;;16.25;;
79361;SDS011;68830;47.566;19.012;2023-05-20T16:11:14;28.45;;;16.50;;
79361;SDS011;68830;47.566;19.012;2023-05-20T16:14:16;27.73;;;14.75;;
79361;SDS011;68830;47.566;19.012;2023-05-20T16:17:18;32.53;;;18.65;;
79361;SDS011;68830;47.566;19.012;2023-05-20T16:20:24;26.20;;;17.02;;
79361;SDS011;68830;47.566;19.012;2023-05-20T16:23:27;30.48;;;18.48;;
79361;SDS011;68830;47.566;19.012;2023-05-20T16:26:30;27.67;;;16.42;;
79361;SDS011;68830;47.566;19.012;2023-05-20T16:29:32;27.08;;;16.02;;
79361;SDS011;68830;47.566;19.012;2023-05-20T16:32:34;31.83;;;18.67;;
79361;SDS011;68830;47.566;19.012;2023-05-20T16:35:36;33.72;;;18.40;;
79361;SDS011;68830;47.566;19.012;2023-05-20T16:38:39;37.15;;;18.13;;
79361;SDS011;68830;47.566;19.012;2023-05-20T16:41:42;34.22;;;19.10;;
79361;SDS011;68830;47.566;19.012;2023-05-20T16:44:44;34.05;;;18.73;;
79361;SDS011;68830;47.566;19.012;2023-05-20T16:47:47;31.25;;;17.67;;
79361;SDS011;68830;47.566;19.012;2023-05-20T16:50:49;29.35;;;17.60;;
79361;SDS011;68830;47.566;19.012;2023-05-20T16:53:52;26.60;;;15.88;;
79361;SDS011;68830;47.566;19.012;2023-05-20T16:56:55;28.67;;;16.98;;
79361;SDS011;68830;47.566;19.012;2023-05-20T16:59:57;26.70;;;16.67;;
79361;SDS011;68830;47.566;19.012;2023-05-20T17:02:59;24.50;;;15.57;;
79361;SDS011;68830;47.566;19.012;2023-05-20T17:06:02;29.52;;;16.33;;
79361;SDS011;68830;47.566;19.012;2023-05-20T17:09:05;30.55;;;16.52;;
79361;SDS011;68830;47.566;19.012;2023-05-20T17:12:07;28.92;;;15.43;;
79361;SDS011;68830;47.566;19.012;2023-05-20T17:15:09;27.77;;;15.93;;
79361;SDS011;68830;47.566;19.012;2023-05-20T17:18:11;25.92;;;15.88;;
79361;SDS011;68830;47.566;19.012;2023-05-20T17:21:14;30.35;;;16.92;;
79361;SDS011;68830;47.566;19.012;2023-05-20T17:24:19;31.35;;;15.13;;
79361;SDS011;68830;47.566;19.012;2023-05-20T17:27:21;35.30;;;16.30;;
79361;SDS011;68830;47.566;19.012;2023-05-20T17:30:24;23.30;;;14.10;;
79361;SDS011;68830;47.566;19.012;2023-05-20T17:33:27;22.83;;;14.82;;
79361;SDS011;68830;47.566;19.012;2023-05-20T17:36:29;23.75;;;14.52;;
79361;SDS011;68830;47.566;19.012;2023-05-20T17:39:33;29.20;;;14.30;;